Greenwood Lake, New York
Current Conditions -  °F | °C
As of 12:53 PM on Wednesday 28 Jan 2015 (Local Time) from KFWN Reporting Station
Clear Clear  
Wind Chill: 18°   Ceiling: Unl
Heat Index: 27°   Visibility: 10mi
Dew Point:   Wind: 9mph
Humidity: 43%   Direction: 300°WNW
Pressure: 30.07"   Gusts: NA
Location:  41.22°N, 74.29°W
Report Text: KFWN 281753Z AUTO 30008KT 280V340 10SM CLR M03/M14 A3007 RMK AO2 SLP188 60000 T10281139 11028 21106 50003
Loading
Personal Weather Stations






























Interactive Weather Map New forecast layout! Learn more

10-Day Weather Forecast

Advertisements
Track Severe Weather on mobile